createdAt,value
2023-01-09T00:01:26.494Z,4.20
2023-01-09T00:03:51.216Z,4.20
2023-01-09T00:06:16.117Z,4.20
2023-01-09T00:08:40.725Z,4.30
2023-01-09T00:11:05.327Z,4.20
2023-01-09T00:13:29.811Z,4.20
2023-01-09T00:15:55.537Z,4.10
2023-01-09T00:18:19.995Z,4.00
2023-01-09T00:20:44.342Z,4.00
2023-01-09T00:23:08.857Z,4.00
2023-01-09T00:25:33.592Z,4.00
2023-01-09T00:27:58.033Z,3.90
2023-01-09T00:30:22.604Z,4.00
2023-01-09T00:32:48.868Z,3.90
2023-01-09T00:35:16.966Z,3.90
2023-01-09T00:37:41.377Z,3.80
2023-01-09T00:40:06.398Z,3.90
2023-01-09T00:42:35.301Z,3.90
2023-01-09T00:45:03.407Z,3.80
2023-01-09T00:47:30.574Z,3.60
2023-01-09T00:49:59.235Z,3.50
2023-01-09T00:52:24.096Z,3.50
2023-01-09T00:54:49.143Z,3.60
2023-01-09T00:57:14.872Z,3.50
2023-01-09T00:59:39.341Z,3.60
2023-01-09T01:02:03.803Z,3.50
2023-01-09T01:04:46.007Z,3.50
2023-01-09T01:07:29.127Z,3.50
2023-01-09T01:09:53.537Z,3.60
2023-01-09T01:12:18.010Z,3.70
2023-01-09T01:14:42.495Z,3.60
2023-01-09T01:17:07.844Z,3.50
2023-01-09T01:19:32.381Z,3.50
2023-01-09T01:21:57.457Z,3.50
2023-01-09T01:24:23.313Z,3.50
2023-01-09T01:26:48.357Z,3.60
2023-01-09T01:29:12.937Z,3.60
2023-01-09T01:31:37.302Z,3.50
2023-01-09T01:34:01.675Z,3.50
2023-01-09T01:36:26.165Z,3.50
2023-01-09T01:38:50.624Z,3.50
2023-01-09T01:41:29.572Z,3.50
2023-01-09T01:43:56.102Z,3.30
2023-01-09T01:46:20.601Z,3.30
2023-01-09T01:48:45.710Z,3.10
2023-01-09T01:51:10.768Z,3.10
2023-01-09T01:53:37.862Z,3.20
2023-01-09T01:56:07.572Z,3.20
2023-01-09T01:58:35.410Z,3.20
2023-01-09T02:01:00.174Z,3.20
2023-01-09T02:03:29.407Z,3.00
2023-01-09T02:05:53.780Z,3.00
2023-01-09T02:08:18.985Z,3.00
2023-01-09T02:10:44.038Z,2.90
2023-01-09T02:13:10.273Z,2.90
2023-01-09T02:15:47.733Z,3.00
2023-01-09T02:18:35.763Z,3.00
2023-01-09T02:21:04.279Z,3.00
2023-01-09T02:24:14.501Z,2.80
2023-01-09T02:27:04.499Z,2.90
2023-01-09T02:29:37.869Z,2.90
2023-01-09T02:32:11.911Z,2.80
2023-01-09T02:34:43.670Z,2.90
2023-01-09T02:37:18.859Z,2.90
2023-01-09T02:39:52.802Z,2.90
2023-01-09T02:42:22.441Z,2.90
2023-01-09T02:44:46.843Z,3.00
2023-01-09T02:47:49.834Z,2.90
2023-01-09T02:50:19.763Z,2.80
2023-01-09T02:53:00.357Z,2.80
2023-01-09T02:55:38.514Z,2.80
2023-01-09T02:58:11.411Z,2.90
2023-01-09T03:00:42.226Z,2.80
2023-01-09T03:03:13.190Z,2.70
2023-01-09T03:05:44.388Z,2.80
2023-01-09T03:08:14.285Z,2.70
2023-01-09T03:10:43.587Z,2.80
2023-01-09T03:13:13.263Z,2.70
2023-01-09T03:15:40.734Z,2.60
2023-01-09T03:18:07.019Z,2.50
2023-01-09T03:20:32.581Z,2.60
2023-01-09T03:23:00.179Z,2.50
2023-01-09T03:25:24.921Z,2.60
2023-01-09T03:27:49.592Z,2.50
2023-01-09T03:30:14.478Z,2.60
2023-01-09T03:32:38.792Z,2.60
2023-01-09T03:35:03.121Z,2.60
2023-01-09T03:37:27.599Z,2.60
2023-01-09T03:39:53.318Z,2.60
2023-01-09T03:42:17.862Z,2.50
2023-01-09T03:44:42.167Z,2.60
2023-01-09T03:47:06.556Z,2.50
2023-01-09T03:49:30.843Z,2.50
2023-01-09T03:51:55.149Z,2.50
2023-01-09T03:54:19.548Z,2.40
2023-01-09T03:56:45.960Z,2.30
2023-01-09T03:59:10.356Z,2.40
2023-01-09T04:01:35.427Z,2.50
2023-01-09T04:04:00.017Z,2.50
2023-01-09T04:06:24.351Z,2.60
2023-01-09T04:08:48.725Z,2.70
2023-01-09T04:11:13.049Z,2.50
2023-01-09T04:13:38.750Z,2.50
2023-01-09T04:16:04.164Z,2.40
2023-01-09T04:18:28.629Z,2.40
2023-01-09T04:20:55.208Z,2.50
2023-01-09T04:23:19.672Z,2.50
2023-01-09T04:25:44.193Z,2.50
2023-01-09T04:28:08.506Z,2.60
2023-01-09T04:30:34.338Z,2.50
2023-01-09T04:32:58.826Z,2.60
2023-01-09T04:35:23.602Z,2.60
2023-01-09T04:37:48.337Z,2.60
2023-01-09T04:40:14.149Z,2.70
2023-01-09T04:42:38.626Z,2.70
2023-01-09T04:45:02.952Z,2.60
2023-01-09T04:47:31.159Z,2.50
2023-01-09T04:50:01.613Z,2.30
2023-01-09T04:52:26.796Z,2.30
2023-01-09T04:54:51.154Z,2.30
2023-01-09T04:57:15.603Z,2.20
2023-01-09T04:59:39.919Z,2.30
2023-01-09T05:02:04.449Z,2.30
2023-01-09T05:04:30.289Z,2.20
2023-01-09T05:06:54.865Z,2.20
2023-01-09T05:09:19.519Z,2.20
2023-01-09T05:11:46.235Z,2.30
2023-01-09T05:14:10.587Z,2.30
2023-01-09T05:16:35.126Z,2.30
2023-01-09T05:19:00.566Z,2.30
2023-01-09T05:21:26.490Z,2.40
2023-01-09T05:23:51.001Z,2.30
2023-01-09T05:26:15.448Z,2.20
2023-01-09T05:28:39.721Z,2.00
2023-01-09T05:31:04.141Z,2.00
2023-01-09T05:33:28.569Z,2.10
2023-01-09T05:35:52.969Z,1.90
2023-01-09T05:38:18.957Z,2.00
2023-01-09T05:40:43.367Z,2.00
2023-01-09T05:43:07.681Z,2.10
2023-01-09T05:45:32.055Z,2.00
2023-01-09T05:47:56.413Z,2.10
2023-01-09T05:50:21.066Z,2.10
2023-01-09T05:52:45.511Z,2.20
2023-01-09T05:55:13.464Z,2.20
2023-01-09T05:57:37.721Z,2.20
2023-01-09T06:00:02.101Z,2.20
2023-01-09T06:02:31.496Z,2.20
2023-01-09T06:04:56.271Z,2.20
2023-01-09T06:07:23.363Z,2.10
2023-01-09T06:09:47.864Z,2.00
2023-01-09T06:12:14.025Z,2.00
2023-01-09T06:14:38.402Z,2.00
2023-01-09T06:17:23.285Z,2.00
2023-01-09T06:19:50.488Z,2.00
2023-01-09T06:22:15.003Z,2.10
2023-01-09T06:24:39.519Z,2.20
2023-01-09T06:27:22.365Z,2.10
2023-01-09T06:29:46.773Z,2.20
2023-01-09T06:32:11.161Z,2.10
2023-01-09T06:34:35.716Z,2.20
2023-01-09T06:37:00.155Z,2.20
2023-01-09T06:39:24.682Z,2.10
2023-01-09T06:41:49.295Z,2.10
2023-01-09T06:44:15.156Z,2.10
2023-01-09T06:46:39.752Z,2.00
2023-01-09T06:49:04.104Z,2.00
2023-01-09T06:51:28.558Z,2.00
2023-01-09T06:53:52.864Z,2.00
2023-01-09T06:56:17.319Z,2.10
2023-01-09T06:58:41.734Z,2.20
2023-01-09T07:01:07.870Z,2.10
2023-01-09T07:03:33.738Z,2.10
2023-01-09T07:05:58.487Z,2.20
2023-01-09T07:08:23.088Z,2.10
2023-01-09T07:10:47.450Z,2.00
2023-01-09T07:13:12.229Z,2.00
2023-01-09T07:15:36.830Z,2.10
2023-01-09T07:18:02.684Z,2.20
2023-01-09T07:20:28.432Z,2.40
2023-01-09T07:22:54.083Z,2.40
2023-01-09T07:25:18.599Z,2.50
2023-01-09T07:27:43.122Z,2.50
2023-01-09T07:30:09.733Z,2.60
2023-01-09T07:32:34.349Z,2.70
2023-01-09T07:35:00.198Z,2.80
2023-01-09T07:37:24.816Z,2.80
2023-01-09T07:39:49.326Z,2.70
2023-01-09T07:42:13.946Z,2.70
2023-01-09T07:44:38.352Z,2.70
2023-01-09T07:47:02.800Z,2.60
2023-01-09T07:49:27.140Z,2.60
2023-01-09T07:51:52.861Z,2.80
2023-01-09T07:54:17.436Z,2.80
2023-01-09T07:56:42.097Z,2.80
2023-01-09T07:59:06.424Z,2.80
2023-01-09T08:01:31.068Z,2.90
2023-01-09T08:03:55.533Z,3.00
2023-01-09T08:06:20.058Z,3.00
2023-01-09T08:08:45.845Z,3.10
2023-01-09T08:11:11.127Z,3.20
2023-01-09T08:13:35.436Z,3.30
2023-01-09T08:15:59.869Z,3.40
2023-01-09T08:18:24.204Z,3.50
2023-01-09T08:20:49.881Z,3.40
2023-01-09T08:23:14.542Z,3.30
2023-01-09T08:25:40.443Z,3.30
2023-01-09T08:28:04.855Z,3.50
2023-01-09T08:30:29.260Z,3.60
2023-01-09T08:32:55.567Z,3.80
2023-01-09T08:35:20.630Z,3.80
2023-01-09T08:37:45.667Z,3.90
2023-01-09T08:40:12.114Z,4.00
2023-01-09T08:42:56.330Z,4.30
2023-01-09T08:45:38.269Z,4.30
2023-01-09T08:48:03.318Z,4.20
2023-01-09T08:50:28.392Z,4.20
2023-01-09T08:52:52.779Z,4.20
2023-01-09T08:55:17.428Z,4.30
2023-01-09T08:57:49.526Z,4.10
2023-01-09T09:00:15.468Z,3.90
2023-01-09T09:02:39.930Z,3.80
2023-01-09T09:05:04.440Z,3.80
2023-01-09T09:07:28.773Z,4.00
2023-01-09T09:09:53.472Z,4.10
2023-01-09T09:12:17.809Z,4.20
2023-01-09T09:15:00.661Z,4.30
2023-01-09T09:17:27.702Z,4.40
2023-01-09T09:19:52.002Z,4.50
2023-01-09T09:22:17.284Z,4.50
2023-01-09T09:24:41.557Z,4.70
2023-01-09T09:27:06.268Z,4.70
2023-01-09T09:29:30.592Z,4.70
2023-01-09T09:31:56.377Z,4.90
2023-01-09T09:34:20.702Z,5.00
2023-01-09T09:36:45.302Z,5.00
2023-01-09T09:39:09.745Z,5.00
2023-01-09T09:42:19.078Z,5.00
2023-01-09T09:44:59.382Z,5.10
2023-01-09T09:47:45.782Z,5.30
2023-01-09T09:50:28.363Z,5.20
2023-01-09T09:53:00.660Z,5.20
2023-01-09T09:55:29.974Z,5.10
2023-01-09T09:57:55.650Z,5.00
2023-01-09T10:00:22.627Z,5.10
2023-01-09T10:02:53.139Z,5.10
2023-01-09T10:05:24.461Z,5.10
2023-01-09T10:07:51.379Z,5.10
2023-01-09T10:10:20.512Z,5.20
2023-01-09T10:12:53.445Z,5.40
2023-01-09T10:15:22.755Z,5.60
2023-01-09T10:18:07.201Z,5.80
2023-01-09T10:20:53.153Z,5.80
2023-01-09T10:23:40.458Z,5.70
2023-01-09T10:26:11.977Z,5.80
2023-01-09T10:28:57.500Z,6.00
2023-01-09T10:31:30.615Z,6.10
2023-01-09T10:34:05.611Z,6.20
2023-01-09T10:36:57.839Z,6.20
2023-01-09T10:39:25.993Z,5.90
2023-01-09T10:41:58.645Z,5.80
2023-01-09T10:44:33.391Z,5.70
2023-01-09T10:46:58.981Z,5.60
2023-01-09T10:49:26.021Z,5.60
2023-01-09T10:52:05.582Z,5.50
2023-01-09T10:54:31.035Z,5.70
2023-01-09T10:56:57.437Z,5.90
2023-01-09T10:59:22.077Z,6.00
2023-01-09T11:01:46.699Z,6.30
2023-01-09T11:04:24.847Z,6.40
2023-01-09T11:06:56.255Z,6.40
2023-01-09T11:09:20.715Z,6.50
2023-01-09T11:11:45.536Z,6.30
2023-01-09T11:14:16.395Z,6.30
2023-01-09T11:16:51.540Z,6.40
2023-01-09T11:19:16.452Z,6.20
2023-01-09T11:21:42.103Z,6.40
2023-01-09T11:24:28.937Z,6.60
2023-01-09T11:26:55.103Z,6.90
2023-01-09T11:29:21.378Z,7.10
2023-01-09T11:31:52.761Z,7.10
2023-01-09T11:34:19.239Z,7.10
2023-01-09T11:36:43.793Z,7.00
2023-01-09T11:39:24.022Z,7.20
2023-01-09T11:41:55.219Z,7.20
2023-01-09T11:44:19.876Z,7.30
2023-01-09T11:46:45.746Z,7.40
2023-01-09T11:49:24.023Z,7.40
2023-01-09T11:52:05.244Z,7.40
2023-01-09T11:54:33.919Z,7.40
2023-01-09T11:56:58.354Z,7.20
2023-01-09T11:59:26.333Z,7.20
2023-01-09T12:02:13.186Z,7.20
2023-01-09T12:04:42.400Z,7.40
2023-01-09T12:07:48.508Z,7.40
2023-01-09T12:10:36.873Z,7.60
2023-01-09T12:13:12.878Z,7.70
2023-01-09T12:15:46.735Z,7.70
2023-01-09T12:18:27.165Z,7.90
2023-01-09T12:20:59.409Z,7.90
2023-01-09T12:23:38.940Z,8.10
2023-01-09T12:26:17.362Z,8.00
2023-01-09T12:29:14.316Z,8.20
2023-01-09T12:32:04.998Z,8.10
2023-01-09T12:34:53.848Z,8.00
2023-01-09T12:37:38.762Z,8.00
2023-01-09T12:40:12.897Z,8.10
2023-01-09T12:42:47.057Z,8.10
2023-01-09T12:45:28.374Z,8.10
2023-01-09T12:47:55.691Z,8.10
2023-01-09T12:50:36.525Z,8.30
2023-01-09T12:53:10.552Z,8.20
2023-01-09T12:55:37.881Z,8.40
2023-01-09T12:58:09.662Z,8.40
2023-01-09T13:00:38.577Z,8.30
2023-01-09T13:03:13.794Z,8.40
2023-01-09T13:05:42.870Z,8.50
2023-01-09T13:08:13.836Z,8.50
2023-01-09T13:10:43.326Z,8.30
2023-01-09T13:13:15.688Z,8.30
2023-01-09T13:15:45.235Z,8.20
2023-01-09T13:18:20.880Z,8.30
2023-01-09T13:20:49.086Z,8.30
2023-01-09T13:23:23.085Z,8.40
2023-01-09T13:25:50.583Z,8.50
2023-01-09T13:28:21.011Z,8.40
2023-01-09T13:31:08.882Z,8.40
2023-01-09T13:33:36.503Z,8.40
2023-01-09T13:36:03.674Z,8.50
2023-01-09T13:38:36.583Z,8.50
2023-01-09T13:41:28.783Z,8.70
2023-01-09T13:44:01.612Z,8.70
2023-01-09T13:46:50.660Z,8.70
2023-01-09T13:49:35.607Z,8.60
2023-01-09T13:52:05.809Z,8.60
2023-01-09T13:55:16.202Z,8.60
2023-01-09T13:57:48.205Z,8.70
2023-01-09T14:00:53.758Z,8.60
2023-01-09T14:03:22.920Z,8.50
2023-01-09T14:06:18.108Z,8.60
2023-01-09T14:08:43.111Z,8.60
2023-01-09T14:11:08.334Z,8.70
2023-01-09T14:13:35.964Z,8.80
2023-01-09T14:16:10.542Z,8.70
2023-01-09T14:18:43.446Z,8.70
2023-01-09T14:21:22.046Z,8.60
2023-01-09T14:23:59.504Z,8.50
2023-01-09T14:26:47.964Z,8.40
2023-01-09T14:29:43.729Z,8.30
2023-01-09T14:32:43.490Z,8.30
2023-01-09T14:35:25.627Z,8.30
2023-01-09T14:38:03.103Z,8.20
2023-01-09T14:40:28.976Z,8.20
2023-01-09T14:43:00.511Z,8.10
2023-01-09T14:45:33.399Z,8.00
2023-01-09T14:48:11.213Z,8.10
2023-01-09T14:50:45.830Z,8.10
2023-01-09T14:53:21.097Z,8.00
2023-01-09T14:56:00.422Z,7.80
2023-01-09T14:58:29.263Z,7.50
2023-01-09T15:00:59.908Z,7.50
2023-01-09T15:03:27.362Z,7.30
2023-01-09T15:05:52.959Z,7.10
2023-01-09T15:08:21.047Z,7.00
2023-01-09T15:10:51.353Z,7.00
2023-01-09T15:13:19.547Z,7.10
2023-01-09T15:15:50.344Z,7.00
2023-01-09T15:18:29.474Z,7.00
2023-01-09T15:20:59.219Z,7.00
2023-01-09T15:23:25.635Z,7.00
2023-01-09T15:25:56.680Z,6.80
2023-01-09T15:28:44.909Z,6.70
2023-01-09T15:31:15.405Z,6.60
2023-01-09T15:33:43.498Z,6.60
2023-01-09T15:36:16.925Z,6.70
2023-01-09T15:38:53.744Z,6.80
2023-01-09T15:41:40.927Z,6.80
2023-01-09T15:44:08.227Z,6.80
2023-01-09T15:46:40.458Z,6.80
2023-01-09T15:49:13.619Z,6.90
2023-01-09T15:51:43.882Z,6.90
2023-01-09T15:54:11.916Z,6.80
2023-01-09T15:56:39.731Z,6.90
2023-01-09T15:59:18.295Z,6.90
2023-01-09T16:02:07.665Z,6.90
2023-01-09T16:04:42.142Z,6.90
2023-01-09T16:07:17.666Z,6.80
2023-01-09T16:09:47.593Z,6.70
2023-01-09T16:12:19.029Z,6.70
2023-01-09T16:14:46.611Z,6.60
2023-01-09T16:17:21.563Z,6.60
2023-01-09T16:19:50.696Z,6.60
2023-01-09T16:22:21.893Z,6.60
2023-01-09T16:24:52.066Z,6.60
2023-01-09T16:27:27.528Z,6.60
2023-01-09T16:29:58.385Z,6.50
2023-01-09T16:32:26.086Z,6.50
2023-01-09T16:35:06.144Z,6.40
2023-01-09T16:37:46.757Z,6.40
2023-01-09T16:40:36.298Z,6.30
2023-01-09T16:43:01.651Z,6.30
2023-01-09T16:45:27.113Z,6.40
2023-01-09T16:47:53.356Z,6.40
2023-01-09T16:50:25.185Z,6.40
2023-01-09T16:52:50.511Z,6.50
2023-01-09T16:55:16.754Z,6.50
2023-01-09T16:57:44.381Z,6.50
2023-01-09T17:00:17.847Z,6.50
2023-01-09T17:02:44.173Z,6.40
2023-01-09T17:05:13.591Z,6.40
2023-01-09T17:07:42.605Z,6.40
2023-01-09T17:10:23.475Z,6.50
2023-01-09T17:12:50.750Z,6.40
2023-01-09T17:15:18.031Z,6.40
2023-01-09T17:17:42.669Z,6.40
2023-01-09T17:20:17.869Z,6.50
2023-01-09T17:22:45.454Z,6.50
2023-01-09T17:25:32.343Z,6.30
2023-01-09T17:28:14.458Z,6.40
2023-01-09T17:30:38.876Z,6.30
2023-01-09T17:33:05.146Z,6.10
2023-01-09T17:35:30.440Z,6.10
2023-01-09T17:37:56.299Z,5.90
2023-01-09T17:40:22.374Z,6.00
2023-01-09T17:42:47.603Z,6.00
2023-01-09T17:45:15.895Z,6.00
2023-01-09T17:47:40.315Z,6.10
2023-01-09T17:50:05.270Z,6.10
2023-01-09T17:52:29.995Z,6.00
2023-01-09T17:54:56.159Z,6.00
2023-01-09T17:57:26.822Z,6.00
2023-01-09T17:59:54.447Z,6.10
2023-01-09T18:02:22.289Z,6.00
2023-01-09T18:04:48.768Z,6.00
2023-01-09T18:07:24.175Z,6.00
2023-01-09T18:10:27.948Z,6.00
2023-01-09T18:12:56.135Z,5.90
2023-01-09T18:15:21.919Z,5.80
2023-01-09T18:17:48.613Z,5.70
2023-01-09T18:20:16.136Z,5.70
2023-01-09T18:22:43.961Z,5.80
2023-01-09T18:25:13.106Z,5.70
2023-01-09T18:27:40.120Z,5.70
2023-01-09T18:30:06.867Z,5.70
2023-01-09T18:32:38.730Z,5.80
2023-01-09T18:35:06.487Z,5.70
2023-01-09T18:37:31.613Z,5.60
2023-01-09T18:40:05.002Z,5.60
2023-01-09T18:42:30.827Z,5.50
2023-01-09T18:44:55.116Z,5.50
2023-01-09T18:47:19.543Z,5.40
2023-01-09T18:49:43.871Z,5.20
2023-01-09T18:52:08.366Z,5.20
2023-01-09T18:54:32.899Z,5.20
2023-01-09T18:56:59.702Z,5.20
2023-01-09T18:59:28.600Z,5.20
2023-01-09T19:01:53.990Z,5.20
2023-01-09T19:04:22.434Z,5.20
2023-01-09T19:06:49.356Z,5.20
2023-01-09T19:09:14.481Z,5.20
2023-01-09T19:11:39.223Z,5.30
2023-01-09T19:14:03.631Z,5.30
2023-01-09T19:16:29.508Z,5.30
2023-01-09T19:18:53.834Z,5.30
2023-01-09T19:21:23.876Z,5.30
2023-01-09T19:23:52.845Z,5.30
2023-01-09T19:26:23.809Z,5.20
2023-01-09T19:28:51.937Z,5.20
2023-01-09T19:31:21.930Z,5.10
2023-01-09T19:33:52.669Z,5.10
2023-01-09T19:36:17.381Z,5.10
2023-01-09T19:38:41.777Z,5.10
2023-01-09T19:41:13.119Z,5.10
2023-01-09T19:43:40.625Z,5.00
2023-01-09T19:46:13.037Z,5.00
2023-01-09T19:48:38.007Z,5.00
2023-01-09T19:51:04.770Z,5.00
2023-01-09T19:53:30.330Z,4.90
2023-01-09T19:55:54.981Z,4.90
2023-01-09T19:58:19.528Z,4.80
2023-01-09T20:00:46.824Z,4.80
2023-01-09T20:03:11.707Z,4.80
2023-01-09T20:05:39.175Z,4.80
2023-01-09T20:08:06.417Z,4.90
2023-01-09T20:10:31.276Z,4.80
2023-01-09T20:12:59.701Z,4.90
2023-01-09T20:15:24.528Z,4.90
2023-01-09T20:17:52.073Z,4.80
2023-01-09T20:22:50.466Z,4.70
2023-01-09T20:25:16.704Z,4.70
2023-01-09T20:27:41.283Z,4.60
2023-01-09T20:30:10.157Z,4.60
2023-01-09T20:32:38.867Z,4.70
2023-01-09T20:35:12.921Z,4.70
2023-01-09T20:37:41.973Z,4.70
2023-01-09T20:40:17.623Z,4.70
2023-01-09T20:42:46.293Z,4.70
2023-01-09T20:45:14.737Z,4.70
2023-01-09T20:47:39.718Z,4.70
2023-01-09T20:50:07.686Z,4.70
2023-01-09T20:52:37.572Z,4.70
2023-01-09T20:55:10.382Z,4.60
2023-01-09T20:57:49.839Z,4.60
2023-01-09T21:00:23.062Z,4.60
2023-01-09T21:02:47.836Z,4.50
2023-01-09T21:05:12.428Z,4.50
2023-01-09T21:07:45.327Z,4.50
2023-01-09T21:10:15.269Z,4.40
2023-01-09T21:12:50.440Z,4.30
2023-01-09T21:57:34.341Z,3.60
2023-01-09T21:59:58.976Z,4.50
2023-01-09T22:02:23.353Z,4.40
2023-01-09T22:04:49.170Z,4.30
2023-01-09T22:07:13.549Z,4.30
2023-01-09T22:09:39.148Z,4.30
2023-01-09T22:12:03.566Z,4.30
2023-01-09T22:14:29.466Z,4.20
2023-01-09T22:16:53.770Z,4.20
2023-01-09T22:19:18.653Z,4.20
2023-01-09T22:21:43.213Z,4.20
2023-01-09T22:24:08.271Z,4.30
2023-01-09T22:26:32.680Z,4.20
2023-01-09T22:28:57.709Z,4.30
2023-01-09T22:31:25.204Z,4.20
2023-01-09T22:33:53.524Z,4.10
2023-01-09T22:36:18.061Z,4.20
2023-01-09T22:38:42.549Z,4.20
2023-01-09T22:41:07.919Z,4.10
2023-01-09T22:43:32.753Z,4.10
2023-01-09T22:46:01.232Z,4.10
2023-01-09T22:48:28.819Z,4.20
2023-01-09T22:50:53.244Z,4.20
2023-01-09T22:53:17.619Z,4.20
2023-01-09T22:55:42.079Z,4.20
2023-01-09T22:58:06.407Z,4.30
2023-01-09T23:00:31.072Z,4.20
2023-01-09T23:02:55.794Z,4.20
2023-01-09T23:05:21.784Z,4.20
2023-01-09T23:07:46.548Z,4.20
2023-01-09T23:10:12.098Z,4.10
2023-01-09T23:12:37.097Z,4.20
2023-01-09T23:15:01.504Z,4.20
2023-01-09T23:17:26.010Z,4.20
2023-01-09T23:19:50.317Z,4.10
2023-01-09T23:22:19.289Z,4.00
2023-01-09T23:24:44.019Z,4.10
2023-01-09T23:27:08.723Z,4.10
2023-01-09T23:29:59.035Z,4.10
2023-01-09T23:32:23.590Z,4.10
2023-01-09T23:34:49.555Z,4.10
2023-01-09T23:37:13.935Z,4.00
2023-01-09T23:39:39.942Z,4.00
2023-01-09T23:42:21.836Z,4.00
2023-01-09T23:44:46.329Z,4.00
2023-01-09T23:47:10.639Z,4.00
2023-01-09T23:49:35.032Z,3.90
2023-01-09T23:52:01.698Z,3.80
2023-01-09T23:54:26.326Z,3.80
2023-01-09T23:56:53.376Z,3.90
2023-01-09T23:59:18.201Z,4.00
